createdAt,value
2024-02-19T00:01:40.133Z,1.95
2024-02-19T00:04:09.914Z,1.80
2024-02-19T00:06:37.880Z,1.70
2024-02-19T00:09:06.185Z,2.20
2024-02-19T00:11:34.058Z,1.90
2024-02-19T00:14:02.168Z,1.90
2024-02-19T00:16:29.909Z,2.22
2024-02-19T00:18:57.930Z,2.00
2024-02-19T00:21:27.546Z,2.33
2024-02-19T00:23:55.289Z,2.13
2024-02-19T00:26:23.032Z,1.98
2024-02-19T00:28:51.409Z,2.30
2024-02-19T00:31:19.371Z,2.15
2024-02-19T00:33:48.696Z,2.55
2024-02-19T00:36:16.650Z,2.28
2024-02-19T00:38:45.889Z,2.40
2024-02-19T00:41:13.676Z,2.42
2024-02-19T00:43:41.488Z,2.58
2024-02-19T00:46:09.300Z,2.78
2024-02-19T00:48:37.074Z,2.42
2024-02-19T00:51:06.032Z,2.45
2024-02-19T00:53:33.787Z,3.13
2024-02-19T00:56:03.064Z,3.28
2024-02-19T00:58:31.256Z,3.22
2024-02-19T01:00:59.648Z,2.90
2024-02-19T01:03:28.025Z,3.17
2024-02-19T01:05:55.952Z,3.10
2024-02-19T01:08:23.874Z,2.78
2024-02-19T01:10:52.514Z,3.40
2024-02-19T01:13:21.639Z,2.70
2024-02-19T01:15:49.547Z,3.50
2024-02-19T01:18:18.044Z,3.47
2024-02-19T01:20:45.774Z,2.97
2024-02-19T01:23:13.487Z,2.88
2024-02-19T01:25:41.434Z,3.17
2024-02-19T01:28:09.706Z,3.50
2024-02-19T01:30:38.853Z,3.70
2024-02-19T01:33:07.608Z,3.25
2024-02-19T01:35:36.596Z,4.15
2024-02-19T01:38:05.551Z,3.40
2024-02-19T01:40:33.388Z,3.55
2024-02-19T01:43:03.222Z,3.90
2024-02-19T01:45:31.043Z,3.60
2024-02-19T01:48:02.017Z,3.95
2024-02-19T01:50:32.613Z,3.42
2024-02-19T01:53:03.515Z,3.83
2024-02-19T01:55:32.162Z,3.78
2024-02-19T01:58:00.048Z,4.13
2024-02-19T02:00:29.425Z,3.67
2024-02-19T02:02:57.715Z,3.88
2024-02-19T02:05:26.717Z,3.70
2024-02-19T02:07:55.518Z,3.60
2024-02-19T02:10:23.369Z,3.80
2024-02-19T02:12:51.156Z,3.30
2024-02-19T02:15:18.988Z,3.25
2024-02-19T02:17:46.903Z,2.67
2024-02-19T02:20:15.105Z,3.28
2024-02-19T02:22:44.585Z,2.95
2024-02-19T02:25:12.622Z,2.47
2024-02-19T02:27:42.285Z,2.70
2024-02-19T02:30:10.688Z,2.60
2024-02-19T02:32:38.984Z,2.58
2024-02-19T02:35:07.342Z,2.28
2024-02-19T02:37:35.106Z,2.10
2024-02-19T02:40:03.710Z,2.20
2024-02-19T02:42:31.610Z,2.28
2024-02-19T02:45:00.733Z,1.90
2024-02-19T02:47:28.745Z,1.75
2024-02-19T02:49:56.535Z,2.05
2024-02-19T02:52:24.360Z,1.70
2024-02-19T02:54:52.658Z,2.13
2024-02-19T02:57:22.042Z,1.77
2024-02-19T02:59:49.753Z,1.70
2024-02-19T03:02:19.110Z,1.70
2024-02-19T03:04:47.031Z,1.73
2024-02-19T03:07:14.904Z,1.73
2024-02-19T03:09:42.737Z,1.83
2024-02-19T03:12:10.533Z,1.30
2024-02-19T03:14:38.354Z,1.42
2024-02-19T03:17:08.439Z,2.08
2024-02-19T03:19:37.782Z,1.98
2024-02-19T03:22:06.434Z,3.00
2024-02-19T03:24:34.147Z,2.60
2024-02-19T03:27:03.315Z,2.08
2024-02-19T03:29:31.123Z,2.20
2024-02-19T03:31:59.151Z,1.73
2024-02-19T03:34:26.944Z,1.50
2024-02-19T03:36:56.229Z,2.05
2024-02-19T03:39:24.221Z,1.92
2024-02-19T03:41:51.936Z,1.63
2024-02-19T03:44:19.705Z,1.27
2024-02-19T03:46:47.717Z,1.60
2024-02-19T03:49:15.674Z,1.10
2024-02-19T03:51:43.438Z,1.30
2024-02-19T03:54:14.498Z,1.25
2024-02-19T03:56:42.450Z,1.25
2024-02-19T03:59:10.597Z,1.98
2024-02-19T04:01:38.972Z,1.10
2024-02-19T04:04:07.077Z,1.60
2024-02-19T04:06:34.951Z,1.30
2024-02-19T04:09:02.957Z,1.42
2024-02-19T04:11:32.356Z,1.60
2024-02-19T04:13:59.339Z,0.93
2024-02-19T04:16:27.571Z,1.40
2024-02-19T04:18:55.483Z,1.08
2024-02-19T04:21:23.672Z,1.20
2024-02-19T04:23:51.358Z,1.40
2024-02-19T04:26:19.088Z,1.13
2024-02-19T04:28:48.141Z,1.50
2024-02-19T04:31:15.911Z,1.00
2024-02-19T04:33:45.111Z,1.30
2024-02-19T04:36:13.384Z,1.33
2024-02-19T04:38:41.986Z,1.13
2024-02-19T04:41:09.784Z,1.20
2024-02-19T04:43:37.471Z,1.10
2024-02-19T04:46:07.244Z,1.02
2024-02-19T04:48:36.375Z,1.17
2024-02-19T04:51:04.317Z,1.00
2024-02-19T04:53:32.508Z,1.00
2024-02-19T04:56:00.815Z,1.67
2024-02-19T04:58:28.711Z,1.50
2024-02-19T05:00:56.619Z,1.30
2024-02-19T05:03:25.792Z,0.85
2024-02-19T05:05:53.584Z,0.82
2024-02-19T05:08:21.291Z,0.90
2024-02-19T05:10:49.059Z,1.08
2024-02-19T05:13:16.822Z,1.00
2024-02-19T05:15:45.436Z,1.17
2024-02-19T05:18:13.409Z,1.05
2024-02-19T05:20:42.576Z,0.90
2024-02-19T05:23:10.449Z,0.90
2024-02-19T05:25:38.113Z,1.40
2024-02-19T05:28:06.235Z,0.90
2024-02-19T05:30:34.178Z,0.80
2024-02-19T05:33:02.051Z,2.35
2024-02-19T05:35:29.926Z,0.90
2024-02-19T05:37:59.164Z,0.98
2024-02-19T05:40:27.056Z,0.70
2024-02-19T05:42:55.075Z,0.75
2024-02-19T05:45:23.468Z,0.88
2024-02-19T05:47:51.419Z,0.70
2024-02-19T05:50:19.793Z,0.93
2024-02-19T05:52:47.496Z,0.77
2024-02-19T05:55:16.958Z,0.45
2024-02-19T05:57:45.092Z,0.68
2024-02-19T06:00:15.339Z,1.05
2024-02-19T06:02:43.577Z,0.95
2024-02-19T06:05:12.612Z,0.70
2024-02-19T06:07:41.144Z,0.70
2024-02-19T06:10:09.818Z,0.73
2024-02-19T06:12:38.972Z,0.80
2024-02-19T06:15:07.487Z,0.90
2024-02-19T06:17:35.477Z,0.75
2024-02-19T06:20:03.389Z,0.98
2024-02-19T06:22:31.220Z,0.85
2024-02-19T06:24:59.001Z,0.70
2024-02-19T06:27:26.805Z,1.00
2024-02-19T06:29:56.000Z,0.70
2024-02-19T06:32:23.745Z,1.17
2024-02-19T06:34:51.631Z,0.63
2024-02-19T06:37:20.032Z,1.55
2024-02-19T06:39:47.887Z,2.65
2024-02-19T06:42:16.079Z,3.38
2024-02-19T06:44:43.746Z,3.10
2024-02-19T06:47:14.317Z,1.60
2024-02-19T06:49:42.780Z,1.40
2024-02-19T06:52:10.766Z,0.90
2024-02-19T06:54:38.577Z,0.95
2024-02-19T06:57:06.993Z,1.05
2024-02-19T06:59:34.772Z,0.90
2024-02-19T07:02:05.812Z,1.27
2024-02-19T07:04:40.936Z,1.15
2024-02-19T07:07:11.091Z,1.48
2024-02-19T07:09:39.566Z,1.30
2024-02-19T07:12:07.713Z,1.27
2024-02-19T07:14:35.644Z,1.23
2024-02-19T07:17:03.672Z,1.20
2024-02-19T07:19:31.737Z,0.98
2024-02-19T07:22:01.469Z,1.35
2024-02-19T07:24:30.530Z,0.90
2024-02-19T07:26:59.222Z,1.05
2024-02-19T07:29:27.749Z,1.13
2024-02-19T07:31:55.621Z,0.93
2024-02-19T07:34:23.555Z,1.08
2024-02-19T07:36:51.512Z,1.30
2024-02-19T07:39:21.973Z,1.23
2024-02-19T07:41:49.676Z,1.10
2024-02-19T07:44:17.529Z,1.05
2024-02-19T07:46:45.805Z,1.35
2024-02-19T07:49:13.598Z,0.95
2024-02-19T07:51:41.915Z,1.20
2024-02-19T07:54:09.709Z,1.10
2024-02-19T07:56:38.811Z,1.30
2024-02-19T07:59:06.818Z,1.25
2024-02-19T08:01:34.775Z,1.10
2024-02-19T08:04:02.923Z,1.20
2024-02-19T08:06:30.874Z,3.20
2024-02-19T08:08:59.757Z,2.78
2024-02-19T08:11:28.949Z,2.45
2024-02-19T08:13:58.187Z,1.80
2024-02-19T08:16:28.680Z,1.23
2024-02-19T08:18:57.007Z,1.00
2024-02-19T08:21:25.577Z,1.15
2024-02-19T08:23:53.832Z,1.50
2024-02-19T08:26:22.222Z,1.38
2024-02-19T08:28:50.287Z,1.10
2024-02-19T08:31:19.485Z,1.13
2024-02-19T08:33:47.461Z,0.93
2024-02-19T08:36:15.552Z,0.85
2024-02-19T08:38:45.932Z,1.30
2024-02-19T08:41:13.804Z,1.05
2024-02-19T08:43:41.857Z,1.10
2024-02-19T08:46:09.612Z,1.00
2024-02-19T08:48:39.157Z,1.00
2024-02-19T08:51:07.046Z,0.85
2024-02-19T08:53:34.730Z,0.93
2024-02-19T08:56:02.712Z,0.90
2024-02-19T08:58:32.244Z,0.73
2024-02-19T09:01:00.743Z,0.80
2024-02-19T09:03:29.174Z,1.02
2024-02-19T09:05:58.931Z,0.77
2024-02-19T09:08:27.573Z,1.10
2024-02-19T09:10:55.918Z,0.90
2024-02-19T09:13:23.857Z,1.33
2024-02-19T09:15:51.657Z,1.42
2024-02-19T09:18:20.301Z,0.93
2024-02-19T09:20:48.366Z,0.80
2024-02-19T09:23:18.062Z,0.90
2024-02-19T09:25:45.811Z,0.73
2024-02-19T09:28:13.943Z,0.90
2024-02-19T09:30:41.757Z,0.90
2024-02-19T09:33:09.552Z,0.60
2024-02-19T09:35:38.394Z,0.77
2024-02-19T09:38:06.638Z,0.80
2024-02-19T09:40:38.781Z,0.73
2024-02-19T09:43:07.795Z,0.70
2024-02-19T09:45:37.383Z,0.70
2024-02-19T09:48:07.783Z,0.70
2024-02-19T09:50:36.766Z,0.50
2024-02-19T09:53:11.938Z,0.73
2024-02-19T09:55:41.227Z,0.60
2024-02-19T09:58:09.257Z,0.75
2024-02-19T10:00:37.642Z,0.70
2024-02-19T10:03:07.319Z,0.70
2024-02-19T10:05:35.245Z,0.70
2024-02-19T10:08:06.205Z,0.90
2024-02-19T10:10:38.922Z,0.73
2024-02-19T10:13:10.650Z,0.90
2024-02-19T10:15:38.882Z,0.70
2024-02-19T10:18:14.467Z,0.60
2024-02-19T10:20:51.785Z,0.98
2024-02-19T10:23:23.851Z,0.90
2024-02-19T10:25:52.606Z,0.80
2024-02-19T10:28:23.362Z,1.00
2024-02-19T10:30:51.306Z,0.88
2024-02-19T10:33:20.044Z,0.63
2024-02-19T10:35:49.662Z,0.60
2024-02-19T10:38:17.612Z,1.10
2024-02-19T10:40:46.026Z,0.60
2024-02-19T10:43:15.238Z,1.10
2024-02-19T10:45:44.712Z,0.70
2024-02-19T10:48:14.363Z,1.52
2024-02-19T10:50:42.899Z,0.82
2024-02-19T10:53:10.682Z,0.95
2024-02-19T10:55:49.662Z,0.93
2024-02-19T10:58:28.123Z,1.40
2024-02-19T11:00:59.630Z,1.10
2024-02-19T11:03:27.488Z,1.13
2024-02-19T11:06:00.922Z,1.20
2024-02-19T11:08:35.703Z,0.80
2024-02-19T11:11:06.504Z,1.00
2024-02-19T11:13:38.263Z,1.40
2024-02-19T11:16:18.380Z,0.90
2024-02-19T11:18:46.559Z,1.10
2024-02-19T11:21:14.543Z,1.00
2024-02-19T11:23:42.639Z,1.52
2024-02-19T11:26:13.496Z,1.13
2024-02-19T11:28:41.797Z,1.02
2024-02-19T11:31:15.016Z,0.90
2024-02-19T11:33:45.499Z,1.00
2024-02-19T11:36:13.310Z,0.90
2024-02-19T11:38:41.071Z,1.23
2024-02-19T11:41:11.806Z,0.75
2024-02-19T11:43:40.782Z,1.00
2024-02-19T11:46:09.528Z,1.25
2024-02-19T11:48:38.062Z,1.10
2024-02-19T11:51:07.576Z,1.23
2024-02-19T11:53:37.071Z,1.60
2024-02-19T11:56:05.267Z,1.23
2024-02-19T11:58:33.475Z,1.00
2024-02-19T12:01:02.780Z,1.15
2024-02-19T12:03:30.599Z,0.90
2024-02-19T12:05:59.355Z,0.75
2024-02-19T12:08:30.323Z,1.65
2024-02-19T12:10:58.006Z,1.08
2024-02-19T12:13:27.053Z,1.35
2024-02-19T12:15:55.687Z,1.35
2024-02-19T12:18:23.938Z,1.10
2024-02-19T12:20:52.589Z,1.50
2024-02-19T12:23:20.419Z,1.50
2024-02-19T12:25:49.871Z,1.45
2024-02-19T12:28:17.878Z,1.40
2024-02-19T12:30:45.691Z,1.83
2024-02-19T12:33:13.739Z,1.80
2024-02-19T12:35:41.979Z,1.27
2024-02-19T12:38:10.030Z,1.27
2024-02-19T12:40:37.816Z,1.70
2024-02-19T12:43:08.013Z,1.75
2024-02-19T12:45:35.799Z,1.48
2024-02-19T12:48:04.193Z,1.55
2024-02-19T12:50:32.593Z,1.90
2024-02-19T12:53:01.831Z,1.73
2024-02-19T12:55:29.889Z,2.20
2024-02-19T12:57:58.004Z,1.60
2024-02-19T13:00:27.643Z,1.83
2024-02-19T13:02:56.084Z,2.45
2024-02-19T13:05:23.863Z,2.10
2024-02-19T13:07:51.848Z,2.40
2024-02-19T13:10:19.791Z,2.20
2024-02-19T13:12:47.662Z,2.60
2024-02-19T13:15:16.116Z,2.28
2024-02-19T13:17:46.808Z,2.75
2024-02-19T13:20:16.153Z,2.75
2024-02-19T13:22:44.558Z,2.72
2024-02-19T13:25:12.423Z,2.97
2024-02-19T13:27:40.537Z,3.33
2024-02-19T13:30:10.633Z,2.80
2024-02-19T13:32:38.929Z,2.65
2024-02-19T13:35:12.261Z,2.75
2024-02-19T13:37:41.207Z,2.13
2024-02-19T13:40:12.145Z,2.30
2024-02-19T13:42:40.584Z,1.90
2024-02-19T13:45:10.486Z,2.03
2024-02-19T13:47:40.156Z,2.28
2024-02-19T13:50:12.274Z,2.40
2024-02-19T13:52:40.508Z,2.50
2024-02-19T13:55:09.124Z,2.70
2024-02-19T13:57:36.984Z,2.97
2024-02-19T14:00:06.465Z,4.32
2024-02-19T14:02:34.790Z,3.08
2024-02-19T14:05:03.128Z,3.60
2024-02-19T14:07:32.644Z,3.60
2024-02-19T14:10:01.810Z,4.32
2024-02-19T14:12:29.928Z,3.85
2024-02-19T14:14:57.744Z,3.85
2024-02-19T14:17:25.684Z,4.13
2024-02-19T14:19:54.383Z,4.40
2024-02-19T14:22:23.307Z,4.38
2024-02-19T14:24:53.158Z,4.22
2024-02-19T14:27:21.193Z,4.97
2024-02-19T14:29:49.653Z,4.85
2024-02-19T14:32:17.916Z,5.10
2024-02-19T14:34:45.773Z,5.07
2024-02-19T14:37:14.503Z,5.10
2024-02-19T14:39:43.785Z,5.13
2024-02-19T14:42:13.567Z,5.22
2024-02-19T14:44:42.841Z,5.05
2024-02-19T14:47:12.082Z,4.90
2024-02-19T14:49:40.740Z,5.07
2024-02-19T14:52:08.954Z,4.93
2024-02-19T14:54:36.857Z,5.22
2024-02-19T14:57:05.624Z,4.75
2024-02-19T14:59:36.791Z,4.97
2024-02-19T15:02:05.017Z,5.72
2024-02-19T15:04:33.384Z,5.30
2024-02-19T15:07:01.933Z,6.03
2024-02-19T15:09:30.363Z,8.35
2024-02-19T15:11:58.263Z,6.22
2024-02-19T15:14:26.017Z,6.38
2024-02-19T15:16:55.318Z,6.60
2024-02-19T15:19:23.204Z,6.78
2024-02-19T15:21:51.046Z,6.72
2024-02-19T15:24:18.894Z,5.75
2024-02-19T15:26:46.864Z,5.55
2024-02-19T15:29:18.109Z,5.05
2024-02-19T15:31:45.884Z,5.07
2024-02-19T15:34:15.424Z,5.85
2024-02-19T15:36:43.474Z,5.00
2024-02-19T15:39:13.102Z,5.00
2024-02-19T15:41:41.000Z,4.80
2024-02-19T15:44:09.468Z,4.55
2024-02-19T15:46:37.698Z,3.95
2024-02-19T15:49:05.939Z,4.43
2024-02-19T15:51:36.369Z,3.03
2024-02-19T15:54:04.497Z,3.58
2024-02-19T15:56:32.562Z,3.67
2024-02-19T15:59:00.368Z,3.20
2024-02-19T16:01:28.606Z,3.75
2024-02-19T16:03:56.734Z,4.00
2024-02-19T16:06:28.945Z,4.00
2024-02-19T16:08:58.954Z,3.80
2024-02-19T16:11:27.069Z,3.83
2024-02-19T16:13:57.283Z,3.80
2024-02-19T16:16:25.118Z,3.83
2024-02-19T16:18:53.152Z,4.40
2024-02-19T16:21:21.489Z,4.18
2024-02-19T16:23:49.710Z,4.22
2024-02-19T16:26:18.940Z,4.20
2024-02-19T16:28:47.753Z,3.88
2024-02-19T16:31:15.845Z,4.05
2024-02-19T16:33:44.036Z,3.67
2024-02-19T16:36:12.104Z,4.05
2024-02-19T16:38:41.931Z,4.22
2024-02-19T16:41:10.164Z,4.07
2024-02-19T16:43:39.992Z,4.38
2024-02-19T16:46:08.148Z,4.82
2024-02-19T16:48:40.268Z,4.65
2024-02-19T16:51:08.838Z,4.68
2024-02-19T16:53:37.643Z,4.47
2024-02-19T16:56:06.184Z,5.30
2024-02-19T16:58:35.992Z,4.10
2024-02-19T17:01:06.872Z,4.32
2024-02-19T17:03:35.286Z,4.22
2024-02-19T17:06:03.418Z,4.07
2024-02-19T17:08:31.792Z,4.43
2024-02-19T17:10:59.904Z,4.40
2024-02-19T17:13:28.058Z,3.80
2024-02-19T17:15:55.946Z,3.65
2024-02-19T17:18:25.629Z,3.30
2024-02-19T17:20:53.516Z,3.28
2024-02-19T17:23:21.491Z,3.72
2024-02-19T17:25:49.266Z,5.07
2024-02-19T17:28:19.811Z,4.25
2024-02-19T17:30:47.893Z,4.28
2024-02-19T17:33:16.207Z,4.22
2024-02-19T17:35:46.101Z,3.45
2024-02-19T17:38:15.595Z,4.03
2024-02-19T17:40:45.156Z,4.32
2024-02-19T17:43:13.652Z,4.05
2024-02-19T17:45:41.642Z,3.95
2024-02-19T17:48:14.009Z,3.90
2024-02-19T17:50:42.845Z,3.80
2024-02-19T17:53:12.472Z,4.05
2024-02-19T17:55:41.014Z,3.88
2024-02-19T17:58:09.002Z,3.80
2024-02-19T18:00:36.933Z,3.70
2024-02-19T18:03:05.098Z,3.40
2024-02-19T18:05:33.117Z,3.88
2024-02-19T18:08:00.846Z,3.35
2024-02-19T18:10:30.155Z,3.25
2024-02-19T18:12:58.256Z,3.30
2024-02-19T18:15:27.585Z,2.90
2024-02-19T18:17:58.131Z,3.45
2024-02-19T18:20:26.700Z,3.47
2024-02-19T18:22:57.046Z,3.10
2024-02-19T18:25:25.492Z,2.72
2024-02-19T18:27:56.815Z,2.90
2024-02-19T18:30:25.356Z,2.83
2024-02-19T18:32:53.360Z,2.75
2024-02-19T18:35:21.692Z,3.28
2024-02-19T18:37:50.242Z,3.20
2024-02-19T18:40:18.461Z,2.65
2024-02-19T18:42:46.305Z,2.90
2024-02-19T18:45:15.419Z,3.25
2024-02-19T18:47:45.026Z,3.22
2024-02-19T18:50:13.377Z,2.88
2024-02-19T18:52:41.179Z,3.55
2024-02-19T18:55:10.016Z,4.25
2024-02-19T18:57:38.730Z,4.18
2024-02-19T19:00:10.751Z,4.47
2024-02-19T19:02:41.458Z,5.18
2024-02-19T19:05:10.431Z,5.40
2024-02-19T19:07:38.515Z,5.30
2024-02-19T19:10:06.994Z,4.80
2024-02-19T19:12:35.152Z,6.78
2024-02-19T19:15:04.949Z,5.07
2024-02-19T19:17:33.064Z,9.15
2024-02-19T19:20:06.484Z,6.20
2024-02-19T19:22:34.629Z,5.15
2024-02-19T19:25:03.241Z,5.53
2024-02-19T19:27:31.417Z,4.50
2024-02-19T19:30:00.908Z,4.03
2024-02-19T19:32:30.264Z,4.05
2024-02-19T19:34:58.366Z,3.53
2024-02-19T19:37:28.789Z,3.88
2024-02-19T19:39:56.729Z,3.67
2024-02-19T19:42:27.157Z,3.90
2024-02-19T19:44:56.714Z,4.05
2024-02-19T19:47:24.881Z,4.35
2024-02-19T19:49:53.009Z,3.83
2024-02-19T19:52:21.044Z,4.20
2024-02-19T19:54:50.716Z,4.20
2024-02-19T19:57:18.538Z,4.10
2024-02-19T19:59:49.102Z,4.10
2024-02-19T20:02:17.506Z,3.20
2024-02-19T20:04:48.798Z,3.03
2024-02-19T20:07:16.734Z,3.53
2024-02-19T20:09:47.194Z,2.67
2024-02-19T20:12:18.794Z,2.63
2024-02-19T20:14:46.965Z,2.50
2024-02-19T20:17:20.582Z,3.55
2024-02-19T20:19:50.423Z,2.75
2024-02-19T20:22:18.425Z,3.05
2024-02-19T20:24:46.927Z,4.82
2024-02-19T20:27:16.178Z,6.65
2024-02-19T20:29:44.580Z,5.82
2024-02-19T20:32:12.623Z,5.28
2024-02-19T20:34:41.342Z,4.75
2024-02-19T20:37:11.542Z,6.20
2024-02-19T20:39:39.459Z,6.78
2024-02-19T20:42:07.334Z,5.57
2024-02-19T20:44:36.757Z,5.30
2024-02-19T20:47:05.261Z,4.60
2024-02-19T20:49:33.264Z,4.65
2024-02-19T20:52:02.630Z,5.53
2024-02-19T20:54:31.854Z,6.22
2024-02-19T20:56:59.786Z,5.80
2024-02-19T20:59:28.462Z,6.55
2024-02-19T21:01:58.573Z,7.65
2024-02-19T21:04:26.851Z,6.97
2024-02-19T21:06:54.868Z,4.25
2024-02-19T21:09:23.257Z,3.20
2024-02-19T21:11:51.223Z,3.00
2024-02-19T21:14:19.002Z,3.20
2024-02-19T21:16:47.234Z,2.58
2024-02-19T21:19:19.703Z,2.28
2024-02-19T21:21:47.863Z,1.98
2024-02-19T21:24:16.043Z,3.80
2024-02-19T21:26:44.039Z,3.47
2024-02-19T21:29:11.801Z,4.30
2024-02-19T21:31:40.341Z,2.88
2024-02-19T21:34:11.532Z,2.70
2024-02-19T21:36:44.903Z,2.53
2024-02-19T21:39:15.547Z,2.80
2024-02-19T21:41:44.924Z,2.38
2024-02-19T21:44:14.598Z,2.28
2024-02-19T21:46:44.268Z,1.70
2024-02-19T21:49:12.205Z,2.03
2024-02-19T21:51:42.744Z,2.75
2024-02-19T21:54:10.804Z,1.73
2024-02-19T21:56:38.761Z,1.80
2024-02-19T21:59:06.830Z,1.30
2024-02-19T22:01:35.232Z,1.60
2024-02-19T22:04:03.447Z,1.33
2024-02-19T22:06:31.395Z,1.67
2024-02-19T22:09:02.354Z,1.67
2024-02-19T22:11:30.296Z,2.05
2024-02-19T22:13:58.173Z,1.60
2024-02-19T22:16:26.008Z,1.67
2024-02-19T22:18:54.409Z,1.40
2024-02-19T22:21:22.324Z,1.33
2024-02-19T22:23:50.191Z,1.35
2024-02-19T22:26:19.284Z,1.42
2024-02-19T22:28:47.080Z,1.80
2024-02-19T22:31:14.807Z,2.00
2024-02-19T22:33:43.440Z,2.20
2024-02-19T22:36:12.290Z,1.50
2024-02-19T22:38:41.218Z,1.30
2024-02-19T22:41:10.124Z,1.30
2024-02-19T22:43:41.032Z,1.35
2024-02-19T22:46:09.645Z,1.30
2024-02-19T22:48:38.078Z,1.80
2024-02-19T22:51:06.433Z,2.20
2024-02-19T22:53:34.664Z,1.55
2024-02-19T22:56:03.221Z,1.25
2024-02-19T22:58:34.849Z,1.33
2024-02-19T23:01:06.371Z,1.30
2024-02-19T23:03:36.003Z,1.42
2024-02-19T23:06:04.776Z,1.55
2024-02-19T23:08:33.080Z,1.45
2024-02-19T23:11:01.741Z,1.42
2024-02-19T23:13:30.312Z,1.23
2024-02-19T23:15:58.808Z,1.27
2024-02-19T23:18:28.565Z,1.35
2024-02-19T23:20:56.756Z,1.38
2024-02-19T23:23:25.716Z,1.25
2024-02-19T23:25:55.411Z,1.33
2024-02-19T23:28:24.017Z,1.17
2024-02-19T23:30:53.569Z,1.10
2024-02-19T23:33:21.792Z,1.20
2024-02-19T23:35:51.488Z,1.27
2024-02-19T23:38:20.855Z,1.30
2024-02-19T23:40:48.823Z,1.30
2024-02-19T23:43:16.990Z,1.40
2024-02-19T23:45:44.890Z,1.50
2024-02-19T23:48:12.800Z,1.25
2024-02-19T23:50:41.487Z,1.20
2024-02-19T23:53:10.945Z,1.40
2024-02-19T23:55:39.014Z,1.30
2024-02-19T23:58:06.825Z,1.13
